Terminal Aerodrome Forecast
Issued by NWS

Home | Current Version | Previous Version | Text Only | Print | Product List | Glossary On
Versions: 1 2 3 4 5 6 7 8 9 10 11 12 13 14 15 16 17 18 19 20 21 22 23 24 25 26 27 28 29 30 31
000
FTUS43 KGLD 221754 AAA
TAFMCK
TAF AMD
KMCK 221754Z 2218/2318 11006KT 1SM -SN OVC015
      TEMPO 2218/2219 1/2SM SN
     FM222000 14007KT P6SM VCSH OVC015
     FM222200 13006KT P6SM BKN025
     FM230200 VRB03KT P6SM BKN015
     FM230600 VRB03KT 5SM BR BKN015
     FM230900 VRB03KT 1/2SM FG OVC008
     FM231600 35006KT 6SM BR SCT020=

USA.gov is the U.S. government's official web portal to all federal, state and local government web resources and services.